sensor_id;sensor_type;location;lat;lon;timestamp;temperature;humidity
39777;DHT22;25453;48.162;14.510;2023-03-18T00:00:08;10.20;40.00
39777;DHT22;25453;48.162;14.510;2023-03-18T00:02:36;10.10;40.00
39777;DHT22;25453;48.162;14.510;2023-03-18T00:05:05;10.10;40.20
39777;DHT22;25453;48.162;14.510;2023-03-18T00:07:33;10.10;40.10
39777;DHT22;25453;48.162;14.510;2023-03-18T00:10:02;10.00;40.10
39777;DHT22;25453;48.162;14.510;2023-03-18T00:12:29;10.00;40.30
39777;DHT22;25453;48.162;14.510;2023-03-18T00:14:58;9.90;40.30
39777;DHT22;25453;48.162;14.510;2023-03-18T00:17:25;9.90;40.40
39777;DHT22;25453;48.162;14.510;2023-03-18T00:19:52;9.80;40.50
39777;DHT22;25453;48.162;14.510;2023-03-18T00:22:20;9.80;40.70
39777;DHT22;25453;48.162;14.510;2023-03-18T00:24:48;9.70;40.70
39777;DHT22;25453;48.162;14.510;2023-03-18T00:27:15;9.70;40.90
39777;DHT22;25453;48.162;14.510;2023-03-18T00:29:42;9.60;41.00
39777;DHT22;25453;48.162;14.510;2023-03-18T00:32:09;9.60;41.10
39777;DHT22;25453;48.162;14.510;2023-03-18T00:34:36;9.60;41.20
39777;DHT22;25453;48.162;14.510;2023-03-18T00:37:04;9.60;41.20
39777;DHT22;25453;48.162;14.510;2023-03-18T00:39:32;9.60;41.30
39777;DHT22;25453;48.162;14.510;2023-03-18T00:42:01;9.60;41.30
39777;DHT22;25453;48.162;14.510;2023-03-18T00:44:36;9.60;41.30
39777;DHT22;25453;48.162;14.510;2023-03-18T00:47:04;9.60;41.30
39777;DHT22;25453;48.162;14.510;2023-03-18T00:49:31;9.70;41.30
39777;DHT22;25453;48.162;14.510;2023-03-18T00:51:58;9.70;41.30
39777;DHT22;25453;48.162;14.510;2023-03-18T00:54:26;9.60;41.30
39777;DHT22;25453;48.162;14.510;2023-03-18T00:56:53;9.60;41.30
39777;DHT22;25453;48.162;14.510;2023-03-18T00:59:21;9.60;41.30
39777;DHT22;25453;48.162;14.510;2023-03-18T01:01:48;9.50;41.20
39777;DHT22;25453;48.162;14.510;2023-03-18T01:04:15;9.40;41.30
39777;DHT22;25453;48.162;14.510;2023-03-18T01:06:43;9.30;41.60
39777;DHT22;25453;48.162;14.510;2023-03-18T01:09:10;9.20;41.90
39777;DHT22;25453;48.162;14.510;2023-03-18T01:11:38;9.20;41.90
39777;DHT22;25453;48.162;14.510;2023-03-18T01:14:05;9.20;42.20
39777;DHT22;25453;48.162;14.510;2023-03-18T01:16:32;9.10;42.10
39777;DHT22;25453;48.162;14.510;2023-03-18T01:18:59;9.00;42.20
39777;DHT22;25453;48.162;14.510;2023-03-18T01:21:26;8.90;42.50
39777;DHT22;25453;48.162;14.510;2023-03-18T01:23:53;8.90;42.60
39777;DHT22;25453;48.162;14.510;2023-03-18T01:26:20;8.80;42.80
39777;DHT22;25453;48.162;14.510;2023-03-18T01:28:47;8.80;42.90
39777;DHT22;25453;48.162;14.510;2023-03-18T01:31:14;8.80;42.80
39777;DHT22;25453;48.162;14.510;2023-03-18T01:33:42;8.70;42.90
39777;DHT22;25453;48.162;14.510;2023-03-18T01:36:09;8.70;43.20
39777;DHT22;25453;48.162;14.510;2023-03-18T01:38:36;8.60;43.10
39777;DHT22;25453;48.162;14.510;2023-03-18T01:41:03;8.50;43.10
39777;DHT22;25453;48.162;14.510;2023-03-18T01:43:32;8.40;43.10
39777;DHT22;25453;48.162;14.510;2023-03-18T01:46:00;8.40;43.40
39777;DHT22;25453;48.162;14.510;2023-03-18T01:48:30;8.30;43.40
39777;DHT22;25453;48.162;14.510;2023-03-18T01:51:02;8.20;43.60
39777;DHT22;25453;48.162;14.510;2023-03-18T01:53:34;8.10;43.80
39777;DHT22;25453;48.162;14.510;2023-03-18T01:56:02;8.10;44.00
39777;DHT22;25453;48.162;14.510;2023-03-18T01:58:32;8.10;44.20
39777;DHT22;25453;48.162;14.510;2023-03-18T02:01:01;8.10;44.40
39777;DHT22;25453;48.162;14.510;2023-03-18T02:03:28;8.10;44.40
39777;DHT22;25453;48.162;14.510;2023-03-18T02:05:55;8.00;44.70
39777;DHT22;25453;48.162;14.510;2023-03-18T02:08:22;8.00;44.80
39777;DHT22;25453;48.162;14.510;2023-03-18T02:10:49;8.00;44.90
39777;DHT22;25453;48.162;14.510;2023-03-18T02:13:17;7.90;45.10
39777;DHT22;25453;48.162;14.510;2023-03-18T02:15:47;7.90;45.30
39777;DHT22;25453;48.162;14.510;2023-03-18T02:18:19;7.90;45.40
39777;DHT22;25453;48.162;14.510;2023-03-18T02:26:14;7.90;45.60
39777;DHT22;25453;48.162;14.510;2023-03-18T02:28:44;7.90;45.50
39777;DHT22;25453;48.162;14.510;2023-03-18T02:31:13;7.90;45.60
39777;DHT22;25453;48.162;14.510;2023-03-18T02:33:42;7.80;45.50
39777;DHT22;25453;48.162;14.510;2023-03-18T02:36:11;7.80;45.50
39777;DHT22;25453;48.162;14.510;2023-03-18T02:38:40;7.80;45.70
39777;DHT22;25453;48.162;14.510;2023-03-18T02:41:12;7.70;45.70
39777;DHT22;25453;48.162;14.510;2023-03-18T02:43:39;7.60;45.80
39777;DHT22;25453;48.162;14.510;2023-03-18T02:48:35;7.60;46.20
39777;DHT22;25453;48.162;14.510;2023-03-18T02:51:04;7.50;46.30
39777;DHT22;25453;48.162;14.510;2023-03-18T02:53:31;7.50;46.30
39777;DHT22;25453;48.162;14.510;2023-03-18T02:55:58;7.50;46.40
39777;DHT22;25453;48.162;14.510;2023-03-18T02:58:24;7.50;46.30
39777;DHT22;25453;48.162;14.510;2023-03-18T03:00:51;7.40;46.50
39777;DHT22;25453;48.162;14.510;2023-03-18T03:03:19;7.40;46.50
39777;DHT22;25453;48.162;14.510;2023-03-18T03:05:46;7.40;46.60
39777;DHT22;25453;48.162;14.510;2023-03-18T03:08:13;7.40;46.60
39777;DHT22;25453;48.162;14.510;2023-03-18T03:10:41;7.40;46.70
39777;DHT22;25453;48.162;14.510;2023-03-18T03:13:08;7.30;46.80
39777;DHT22;25453;48.162;14.510;2023-03-18T03:15:38;7.40;46.90
39777;DHT22;25453;48.162;14.510;2023-03-18T03:18:05;7.40;46.90
39777;DHT22;25453;48.162;14.510;2023-03-18T03:20:33;7.40;47.20
39777;DHT22;25453;48.162;14.510;2023-03-18T03:23:05;7.50;47.20
39777;DHT22;25453;48.162;14.510;2023-03-18T03:25:32;7.50;47.00
39777;DHT22;25453;48.162;14.510;2023-03-18T03:27:59;7.60;47.00
39777;DHT22;25453;48.162;14.510;2023-03-18T03:30:26;7.60;47.00
39777;DHT22;25453;48.162;14.510;2023-03-18T03:32:53;7.70;47.00
39777;DHT22;25453;48.162;14.510;2023-03-18T03:35:21;7.70;46.90
39777;DHT22;25453;48.162;14.510;2023-03-18T03:37:49;7.80;46.70
39777;DHT22;25453;48.162;14.510;2023-03-18T03:40:17;7.80;46.60
39777;DHT22;25453;48.162;14.510;2023-03-18T03:42:44;7.90;46.70
39777;DHT22;25453;48.162;14.510;2023-03-18T03:45:12;7.90;46.60
39777;DHT22;25453;48.162;14.510;2023-03-18T03:47:39;7.90;46.50
39777;DHT22;25453;48.162;14.510;2023-03-18T03:50:07;7.90;46.40
39777;DHT22;25453;48.162;14.510;2023-03-18T03:52:36;7.90;46.40
39777;DHT22;25453;48.162;14.510;2023-03-18T03:55:05;7.90;46.40
39777;DHT22;25453;48.162;14.510;2023-03-18T03:57:32;7.90;46.50
39777;DHT22;25453;48.162;14.510;2023-03-18T04:00:00;7.90;46.50
39777;DHT22;25453;48.162;14.510;2023-03-18T04:02:27;7.80;46.60
39777;DHT22;25453;48.162;14.510;2023-03-18T04:04:54;7.80;46.50
39777;DHT22;25453;48.162;14.510;2023-03-18T04:07:21;7.80;46.30
39777;DHT22;25453;48.162;14.510;2023-03-18T04:09:48;7.60;46.60
39777;DHT22;25453;48.162;14.510;2023-03-18T04:12:15;7.60;46.70
39777;DHT22;25453;48.162;14.510;2023-03-18T04:14:45;7.50;46.90
39777;DHT22;25453;48.162;14.510;2023-03-18T04:17:14;7.50;47.10
39777;DHT22;25453;48.162;14.510;2023-03-18T04:19:41;7.60;47.30
39777;DHT22;25453;48.162;14.510;2023-03-18T04:22:08;7.60;47.20
39777;DHT22;25453;48.162;14.510;2023-03-18T04:24:36;7.60;47.10
39777;DHT22;25453;48.162;14.510;2023-03-18T04:27:03;7.50;47.00
39777;DHT22;25453;48.162;14.510;2023-03-18T04:29:30;7.40;47.20
39777;DHT22;25453;48.162;14.510;2023-03-18T04:31:58;7.40;47.30
39777;DHT22;25453;48.162;14.510;2023-03-18T04:34:25;7.40;47.50
39777;DHT22;25453;48.162;14.510;2023-03-18T04:36:52;7.40;47.20
39777;DHT22;25453;48.162;14.510;2023-03-18T04:39:19;7.40;47.60
39777;DHT22;25453;48.162;14.510;2023-03-18T04:41:45;7.40;47.80
39777;DHT22;25453;48.162;14.510;2023-03-18T04:44:12;7.40;47.40
39777;DHT22;25453;48.162;14.510;2023-03-18T04:46:39;7.30;47.50
39777;DHT22;25453;48.162;14.510;2023-03-18T04:49:06;7.30;47.40
39777;DHT22;25453;48.162;14.510;2023-03-18T04:51:34;7.20;47.50
39777;DHT22;25453;48.162;14.510;2023-03-18T04:54:01;7.20;47.50
39777;DHT22;25453;48.162;14.510;2023-03-18T04:56:28;7.10;47.50
39777;DHT22;25453;48.162;14.510;2023-03-18T04:58:55;7.00;47.60
39777;DHT22;25453;48.162;14.510;2023-03-18T05:01:22;6.90;47.80
39777;DHT22;25453;48.162;14.510;2023-03-18T05:03:50;6.70;48.00
39777;DHT22;25453;48.162;14.510;2023-03-18T05:06:21;6.70;48.40
39777;DHT22;25453;48.162;14.510;2023-03-18T05:08:48;6.70;48.50
39777;DHT22;25453;48.162;14.510;2023-03-18T05:11:16;6.70;48.40
39777;DHT22;25453;48.162;14.510;2023-03-18T05:13:43;6.60;48.70
39777;DHT22;25453;48.162;14.510;2023-03-18T05:16:10;6.50;48.70
39777;DHT22;25453;48.162;14.510;2023-03-18T05:18:37;6.50;49.20
39777;DHT22;25453;48.162;14.510;2023-03-18T05:21:04;6.60;49.60
39777;DHT22;25453;48.162;14.510;2023-03-18T05:23:33;6.60;49.40
39777;DHT22;25453;48.162;14.510;2023-03-18T05:26:00;6.60;49.50
39777;DHT22;25453;48.162;14.510;2023-03-18T05:28:27;6.60;49.80
39777;DHT22;25453;48.162;14.510;2023-03-18T05:30:54;6.70;49.80
39777;DHT22;25453;48.162;14.510;2023-03-18T05:33:21;6.70;50.00
39777;DHT22;25453;48.162;14.510;2023-03-18T05:35:48;6.70;49.80
39777;DHT22;25453;48.162;14.510;2023-03-18T05:38:15;6.70;49.90
39777;DHT22;25453;48.162;14.510;2023-03-18T05:40:43;6.70;49.90
39777;DHT22;25453;48.162;14.510;2023-03-18T05:43:10;6.70;50.00
39777;DHT22;25453;48.162;14.510;2023-03-18T05:45:37;6.70;49.90
39777;DHT22;25453;48.162;14.510;2023-03-18T05:48:06;6.70;49.80
39777;DHT22;25453;48.162;14.510;2023-03-18T05:50:37;6.60;49.90
39777;DHT22;25453;48.162;14.510;2023-03-18T05:53:05;6.60;50.10
39777;DHT22;25453;48.162;14.510;2023-03-18T05:55:32;6.60;50.50
39777;DHT22;25453;48.162;14.510;2023-03-18T05:57:59;6.60;50.60
39777;DHT22;25453;48.162;14.510;2023-03-18T06:00:26;6.60;50.60
39777;DHT22;25453;48.162;14.510;2023-03-18T06:02:57;6.60;50.60
39777;DHT22;25453;48.162;14.510;2023-03-18T06:05:24;6.60;50.60
39777;DHT22;25453;48.162;14.510;2023-03-18T06:07:51;6.60;50.90
39777;DHT22;25453;48.162;14.510;2023-03-18T06:10:20;6.70;51.10
39777;DHT22;25453;48.162;14.510;2023-03-18T06:12:48;6.70;50.90
39777;DHT22;25453;48.162;14.510;2023-03-18T06:15:16;6.70;51.00
39777;DHT22;25453;48.162;14.510;2023-03-18T06:17:44;6.70;51.10
39777;DHT22;25453;48.162;14.510;2023-03-18T06:20:11;6.70;51.10
39777;DHT22;25453;48.162;14.510;2023-03-18T06:22:39;6.70;51.20
39777;DHT22;25453;48.162;14.510;2023-03-18T06:25:07;6.70;51.30
39777;DHT22;25453;48.162;14.510;2023-03-18T06:27:35;6.80;51.60
39777;DHT22;25453;48.162;14.510;2023-03-18T06:30:02;6.80;51.90
39777;DHT22;25453;48.162;14.510;2023-03-18T06:32:30;6.90;52.00
39777;DHT22;25453;48.162;14.510;2023-03-18T06:34:57;7.00;51.90
39777;DHT22;25453;48.162;14.510;2023-03-18T06:37:24;7.00;51.90
39777;DHT22;25453;48.162;14.510;2023-03-18T06:39:51;7.00;51.90
39777;DHT22;25453;48.162;14.510;2023-03-18T06:42:18;7.00;52.00
39777;DHT22;25453;48.162;14.510;2023-03-18T06:44:45;7.00;52.30
39777;DHT22;25453;48.162;14.510;2023-03-18T06:47:17;7.00;52.40
39777;DHT22;25453;48.162;14.510;2023-03-18T06:49:44;7.00;52.50
39777;DHT22;25453;48.162;14.510;2023-03-18T06:52:11;7.00;52.60
39777;DHT22;25453;48.162;14.510;2023-03-18T06:54:40;7.00;52.80
39777;DHT22;25453;48.162;14.510;2023-03-18T06:57:07;7.00;52.80
39777;DHT22;25453;48.162;14.510;2023-03-18T06:59:34;7.10;52.90
39777;DHT22;25453;48.162;14.510;2023-03-18T07:02:01;7.10;53.00
39777;DHT22;25453;48.162;14.510;2023-03-18T07:04:28;7.20;53.00
39777;DHT22;25453;48.162;14.510;2023-03-18T07:06:56;7.30;53.00
39777;DHT22;25453;48.162;14.510;2023-03-18T07:09:23;7.40;53.00
39777;DHT22;25453;48.162;14.510;2023-03-18T07:11:50;7.40;53.00
39777;DHT22;25453;48.162;14.510;2023-03-18T07:14:17;7.50;52.90
39777;DHT22;25453;48.162;14.510;2023-03-18T07:16:44;7.60;53.00
39777;DHT22;25453;48.162;14.510;2023-03-18T07:19:11;7.70;52.90
39777;DHT22;25453;48.162;14.510;2023-03-18T07:21:38;7.80;52.90
39777;DHT22;25453;48.162;14.510;2023-03-18T07:24:08;7.80;52.60
39777;DHT22;25453;48.162;14.510;2023-03-18T07:26:35;7.90;52.60
39777;DHT22;25453;48.162;14.510;2023-03-18T07:29:03;8.00;52.60
39777;DHT22;25453;48.162;14.510;2023-03-18T07:31:30;8.00;52.50
39777;DHT22;25453;48.162;14.510;2023-03-18T07:33:57;8.10;52.50
39777;DHT22;25453;48.162;14.510;2023-03-18T07:36:24;8.20;52.30
39777;DHT22;25453;48.162;14.510;2023-03-18T07:38:52;8.30;52.20
39777;DHT22;25453;48.162;14.510;2023-03-18T07:41:19;8.30;52.00
39777;DHT22;25453;48.162;14.510;2023-03-18T07:43:46;8.40;51.70
39777;DHT22;25453;48.162;14.510;2023-03-18T07:46:14;8.50;51.70
39777;DHT22;25453;48.162;14.510;2023-03-18T07:48:41;8.60;51.70
39777;DHT22;25453;48.162;14.510;2023-03-18T07:51:08;8.70;51.60
39777;DHT22;25453;48.162;14.510;2023-03-18T07:53:35;8.80;51.40
39777;DHT22;25453;48.162;14.510;2023-03-18T07:56:02;8.90;51.20
39777;DHT22;25453;48.162;14.510;2023-03-18T07:58:29;8.90;50.90
39777;DHT22;25453;48.162;14.510;2023-03-18T08:00:56;9.00;50.60
39777;DHT22;25453;48.162;14.510;2023-03-18T08:03:25;9.00;50.40
39777;DHT22;25453;48.162;14.510;2023-03-18T08:05:53;9.10;50.50
39777;DHT22;25453;48.162;14.510;2023-03-18T08:08:22;9.20;50.30
39777;DHT22;25453;48.162;14.510;2023-03-18T08:10:50;9.30;50.30
39777;DHT22;25453;48.162;14.510;2023-03-18T08:13:18;9.40;50.00
39777;DHT22;25453;48.162;14.510;2023-03-18T08:15:45;9.50;50.20
39777;DHT22;25453;48.162;14.510;2023-03-18T08:18:12;9.60;50.20
39777;DHT22;25453;48.162;14.510;2023-03-18T08:20:39;9.70;49.80
39777;DHT22;25453;48.162;14.510;2023-03-18T08:23:06;9.80;49.80
39777;DHT22;25453;48.162;14.510;2023-03-18T08:25:33;10.00;49.80
39777;DHT22;25453;48.162;14.510;2023-03-18T08:28:01;10.10;49.80
39777;DHT22;25453;48.162;14.510;2023-03-18T08:30:28;10.20;49.40
39777;DHT22;25453;48.162;14.510;2023-03-18T08:32:59;10.40;49.40
39777;DHT22;25453;48.162;14.510;2023-03-18T08:35:26;10.50;49.40
39777;DHT22;25453;48.162;14.510;2023-03-18T08:37:57;10.70;49.10
39777;DHT22;25453;48.162;14.510;2023-03-18T08:40:24;10.90;49.20
39777;DHT22;25453;48.162;14.510;2023-03-18T08:42:51;11.00;49.00
39777;DHT22;25453;48.162;14.510;2023-03-18T08:45:18;11.10;48.80
39777;DHT22;25453;48.162;14.510;2023-03-18T08:47:45;11.30;48.60
39777;DHT22;25453;48.162;14.510;2023-03-18T08:50:12;11.40;48.50
39777;DHT22;25453;48.162;14.510;2023-03-18T08:52:40;11.50;48.10
39777;DHT22;25453;48.162;14.510;2023-03-18T08:55:07;11.60;47.80
39777;DHT22;25453;48.162;14.510;2023-03-18T08:57:35;11.80;48.00
39777;DHT22;25453;48.162;14.510;2023-03-18T09:00:03;12.00;47.80
39777;DHT22;25453;48.162;14.510;2023-03-18T09:02:31;12.20;47.60
39777;DHT22;25453;48.162;14.510;2023-03-18T09:04:59;12.30;47.50
39777;DHT22;25453;48.162;14.510;2023-03-18T09:07:26;12.50;47.40
39777;DHT22;25453;48.162;14.510;2023-03-18T09:09:54;12.70;47.10
39777;DHT22;25453;48.162;14.510;2023-03-18T09:12:21;12.90;46.80
39777;DHT22;25453;48.162;14.510;2023-03-18T09:14:48;13.00;46.50
39777;DHT22;25453;48.162;14.510;2023-03-18T09:17:15;13.20;46.10
39777;DHT22;25453;48.162;14.510;2023-03-18T09:19:42;13.30;45.60
39777;DHT22;25453;48.162;14.510;2023-03-18T09:22:09;13.50;45.60
39777;DHT22;25453;48.162;14.510;2023-03-18T09:24:37;13.70;45.00
39777;DHT22;25453;48.162;14.510;2023-03-18T09:27:04;13.80;44.30
39777;DHT22;25453;48.162;14.510;2023-03-18T09:29:31;14.00;44.30
39777;DHT22;25453;48.162;14.510;2023-03-18T09:31:58;14.20;43.90
39777;DHT22;25453;48.162;14.510;2023-03-18T09:34:26;14.30;44.10
39777;DHT22;25453;48.162;14.510;2023-03-18T09:36:53;14.60;45.10
39777;DHT22;25453;48.162;14.510;2023-03-18T09:39:20;14.80;44.00
39777;DHT22;25453;48.162;14.510;2023-03-18T09:54:41;15.50;42.20
39777;DHT22;25453;48.162;14.510;2023-03-18T09:57:11;15.60;42.20
39777;DHT22;25453;48.162;14.510;2023-03-18T09:59:42;15.60;41.90
39777;DHT22;25453;48.162;14.510;2023-03-18T10:02:17;15.50;41.90
39777;DHT22;25453;48.162;14.510;2023-03-18T10:04:48;15.60;41.70
39777;DHT22;25453;48.162;14.510;2023-03-18T10:07:19;15.50;42.00
39777;DHT22;25453;48.162;14.510;2023-03-18T10:09:51;15.60;42.20
39777;DHT22;25453;48.162;14.510;2023-03-18T10:12:26;15.70;42.40
39777;DHT22;25453;48.162;14.510;2023-03-18T10:17:45;15.80;42.40
39777;DHT22;25453;48.162;14.510;2023-03-18T10:20:19;15.90;42.40
39777;DHT22;25453;48.162;14.510;2023-03-18T10:30:54;16.10;42.10
39777;DHT22;25453;48.162;14.510;2023-03-18T10:36:04;16.20;41.70
39777;DHT22;25453;48.162;14.510;2023-03-18T10:38:44;16.20;41.30
39777;DHT22;25453;48.162;14.510;2023-03-18T10:41:17;16.30;41.40
39777;DHT22;25453;48.162;14.510;2023-03-18T10:43:49;16.30;41.80
39777;DHT22;25453;48.162;14.510;2023-03-18T10:46:18;16.40;42.10
39777;DHT22;25453;48.162;14.510;2023-03-18T10:54:12;16.80;42.10
39777;DHT22;25453;48.162;14.510;2023-03-18T10:56:41;17.00;42.20
39777;DHT22;25453;48.162;14.510;2023-03-18T10:59:12;17.20;42.30
39777;DHT22;25453;48.162;14.510;2023-03-18T11:01:45;17.40;42.00
39777;DHT22;25453;48.162;14.510;2023-03-18T11:04:13;17.60;41.80
39777;DHT22;25453;48.162;14.510;2023-03-18T11:09:14;18.10;40.90
39777;DHT22;25453;48.162;14.510;2023-03-18T11:11:42;18.20;40.90
39777;DHT22;25453;48.162;14.510;2023-03-18T11:14:14;18.40;40.70
39777;DHT22;25453;48.162;14.510;2023-03-18T11:19:57;18.70;40.10
39777;DHT22;25453;48.162;14.510;2023-03-18T11:22:26;18.80;39.50
39777;DHT22;25453;48.162;14.510;2023-03-18T11:27:32;19.00;39.70
39777;DHT22;25453;48.162;14.510;2023-03-18T11:30:02;19.10;39.40
39777;DHT22;25453;48.162;14.510;2023-03-18T11:32:32;19.30;39.30
39777;DHT22;25453;48.162;14.510;2023-03-18T11:35:00;19.40;39.10
39777;DHT22;25453;48.162;14.510;2023-03-18T11:37:28;19.40;38.70
39777;DHT22;25453;48.162;14.510;2023-03-18T11:42:47;19.50;38.40
39777;DHT22;25453;48.162;14.510;2023-03-18T11:47:48;19.60;38.00
39777;DHT22;25453;48.162;14.510;2023-03-18T11:50:17;19.70;38.10
39777;DHT22;25453;48.162;14.510;2023-03-18T11:52:48;19.70;38.00
39777;DHT22;25453;48.162;14.510;2023-03-18T11:55:37;19.70;38.20
39777;DHT22;25453;48.162;14.510;2023-03-18T12:04:13;19.70;38.50
39777;DHT22;25453;48.162;14.510;2023-03-18T12:19:29;19.80;39.30
39777;DHT22;25453;48.162;14.510;2023-03-18T12:26:39;19.80;39.00
39777;DHT22;25453;48.162;14.510;2023-03-18T12:29:26;19.80;39.10
39777;DHT22;25453;48.162;14.510;2023-03-18T12:32:02;19.80;39.10
39777;DHT22;25453;48.162;14.510;2023-03-18T12:34:41;19.80;38.90
39777;DHT22;25453;48.162;14.510;2023-03-18T12:37:21;19.80;38.70
39777;DHT22;25453;48.162;14.510;2023-03-18T12:39:52;19.70;38.90
39777;DHT22;25453;48.162;14.510;2023-03-18T12:44:57;19.50;39.20
39777;DHT22;25453;48.162;14.510;2023-03-18T12:50:17;19.50;39.50
39777;DHT22;25453;48.162;14.510;2023-03-18T12:57:47;19.50;40.00
39777;DHT22;25453;48.162;14.510;2023-03-18T13:00:27;19.40;40.10
39777;DHT22;25453;48.162;14.510;2023-03-18T13:05:25;19.40;39.80
39777;DHT22;25453;48.162;14.510;2023-03-18T13:08:09;19.40;39.70
39777;DHT22;25453;48.162;14.510;2023-03-18T13:10:42;19.40;39.80
39777;DHT22;25453;48.162;14.510;2023-03-18T13:13:12;19.40;40.10
39777;DHT22;25453;48.162;14.510;2023-03-18T13:15:40;19.40;40.40
39777;DHT22;25453;48.162;14.510;2023-03-18T13:18:14;19.50;40.40
39777;DHT22;25453;48.162;14.510;2023-03-18T13:20:42;19.60;40.40
39777;DHT22;25453;48.162;14.510;2023-03-18T13:25:47;19.70;40.80
39777;DHT22;25453;48.162;14.510;2023-03-18T13:31:08;19.80;40.60
39777;DHT22;25453;48.162;14.510;2023-03-18T13:41:38;19.50;41.20
39777;DHT22;25453;48.162;14.510;2023-03-18T13:44:13;19.40;41.40
39777;DHT22;25453;48.162;14.510;2023-03-18T13:46:42;19.40;41.60
39777;DHT22;25453;48.162;14.510;2023-03-18T13:49:16;19.30;41.60
39777;DHT22;25453;48.162;14.510;2023-03-18T13:51:48;19.20;41.90
39777;DHT22;25453;48.162;14.510;2023-03-18T13:54:16;19.10;42.00
39777;DHT22;25453;48.162;14.510;2023-03-18T13:56:51;19.10;42.20
39777;DHT22;25453;48.162;14.510;2023-03-18T14:04:47;18.80;42.70
39777;DHT22;25453;48.162;14.510;2023-03-18T14:07:18;18.70;42.80
39777;DHT22;25453;48.162;14.510;2023-03-18T14:12:44;18.50;43.20
39777;DHT22;25453;48.162;14.510;2023-03-18T14:17:55;18.30;43.70
39777;DHT22;25453;48.162;14.510;2023-03-18T14:20:41;18.30;43.80
39777;DHT22;25453;48.162;14.510;2023-03-18T14:26:02;18.30;43.90
39777;DHT22;25453;48.162;14.510;2023-03-18T14:28:36;18.20;43.90
39777;DHT22;25453;48.162;14.510;2023-03-18T14:31:24;18.20;43.90
39777;DHT22;25453;48.162;14.510;2023-03-18T14:33:56;18.10;44.00
39777;DHT22;25453;48.162;14.510;2023-03-18T14:41:45;18.00;44.30
39777;DHT22;25453;48.162;14.510;2023-03-18T14:44:20;17.90;44.40
39777;DHT22;25453;48.162;14.510;2023-03-18T14:46:53;17.90;44.40
39777;DHT22;25453;48.162;14.510;2023-03-18T14:49:43;17.80;44.60
39777;DHT22;25453;48.162;14.510;2023-03-18T14:54:42;17.80;44.70
39777;DHT22;25453;48.162;14.510;2023-03-18T14:57:11;17.70;44.80
39777;DHT22;25453;48.162;14.510;2023-03-18T14:59:38;17.70;44.70
39777;DHT22;25453;48.162;14.510;2023-03-18T15:02:07;17.60;44.90
39777;DHT22;25453;48.162;14.510;2023-03-18T15:04:38;17.50;44.90
39777;DHT22;25453;48.162;14.510;2023-03-18T15:07:05;17.50;45.00
39777;DHT22;25453;48.162;14.510;2023-03-18T15:09:35;17.40;45.00
39777;DHT22;25453;48.162;14.510;2023-03-18T15:12:18;17.40;45.10
39777;DHT22;25453;48.162;14.510;2023-03-18T15:14:52;17.30;45.10
39777;DHT22;25453;48.162;14.510;2023-03-18T15:17:19;17.20;45.20
39777;DHT22;25453;48.162;14.510;2023-03-18T15:19:50;17.10;45.20
39777;DHT22;25453;48.162;14.510;2023-03-18T15:22:24;17.10;45.30
39777;DHT22;25453;48.162;14.510;2023-03-18T15:24:56;17.00;45.30
39777;DHT22;25453;48.162;14.510;2023-03-18T15:27:23;16.90;45.10
39777;DHT22;25453;48.162;14.510;2023-03-18T15:29:55;16.90;45.20
39777;DHT22;25453;48.162;14.510;2023-03-18T15:32:30;16.80;45.00
39777;DHT22;25453;48.162;14.510;2023-03-18T15:37:39;16.60;45.10
39777;DHT22;25453;48.162;14.510;2023-03-18T15:43:37;16.50;45.00
39777;DHT22;25453;48.162;14.510;2023-03-18T15:45:46;16.40;45.10
39777;DHT22;25453;48.162;14.510;2023-03-18T15:48:48;16.30;45.30
39777;DHT22;25453;48.162;14.510;2023-03-18T15:51:21;16.20;45.20
39777;DHT22;25453;48.162;14.510;2023-03-18T15:53:56;16.20;45.20
39777;DHT22;25453;48.162;14.510;2023-03-18T15:56:27;16.10;45.30
39777;DHT22;25453;48.162;14.510;2023-03-18T15:58:56;16.10;45.20
39777;DHT22;25453;48.162;14.510;2023-03-18T16:01:24;16.00;45.20
39777;DHT22;25453;48.162;14.510;2023-03-18T16:03:51;16.00;45.30
39777;DHT22;25453;48.162;14.510;2023-03-18T16:06:18;15.90;45.40
39777;DHT22;25453;48.162;14.510;2023-03-18T16:08:45;15.90;45.30
39777;DHT22;25453;48.162;14.510;2023-03-18T16:11:12;15.90;45.40
39777;DHT22;25453;48.162;14.510;2023-03-18T16:13:40;15.80;45.50
39777;DHT22;25453;48.162;14.510;2023-03-18T16:16:27;15.80;45.50
39777;DHT22;25453;48.162;14.510;2023-03-18T16:18:55;15.80;45.40
39777;DHT22;25453;48.162;14.510;2023-03-18T16:21:23;15.70;45.10
39777;DHT22;25453;48.162;14.510;2023-03-18T16:23:50;15.60;45.20
39777;DHT22;25453;48.162;14.510;2023-03-18T16:26:18;15.60;45.10
39777;DHT22;25453;48.162;14.510;2023-03-18T16:28:45;15.60;45.10
39777;DHT22;25453;48.162;14.510;2023-03-18T16:31:14;15.50;45.20
39777;DHT22;25453;48.162;14.510;2023-03-18T16:33:41;15.50;45.10
39777;DHT22;25453;48.162;14.510;2023-03-18T16:36:09;15.50;45.00
39777;DHT22;25453;48.162;14.510;2023-03-18T16:38:44;15.40;44.70
39777;DHT22;25453;48.162;14.510;2023-03-18T16:41:11;15.40;44.70
39777;DHT22;25453;48.162;14.510;2023-03-18T16:43:38;15.40;44.60
39777;DHT22;25453;48.162;14.510;2023-03-18T16:46:07;15.30;44.70
39777;DHT22;25453;48.162;14.510;2023-03-18T16:48:35;15.30;44.70
39777;DHT22;25453;48.162;14.510;2023-03-18T16:51:02;15.20;44.70
39777;DHT22;25453;48.162;14.510;2023-03-18T16:53:30;15.20;44.70
39777;DHT22;25453;48.162;14.510;2023-03-18T16:56:00;15.10;44.70
39777;DHT22;25453;48.162;14.510;2023-03-18T16:58:29;15.10;44.70
39777;DHT22;25453;48.162;14.510;2023-03-18T17:00:56;15.10;44.70
39777;DHT22;25453;48.162;14.510;2023-03-18T17:03:23;15.10;44.80
39777;DHT22;25453;48.162;14.510;2023-03-18T17:05:50;15.00;44.80
39777;DHT22;25453;48.162;14.510;2023-03-18T17:08:18;15.00;44.80
39777;DHT22;25453;48.162;14.510;2023-03-18T17:10:45;15.00;44.90
39777;DHT22;25453;48.162;14.510;2023-03-18T17:13:18;14.90;45.00
39777;DHT22;25453;48.162;14.510;2023-03-18T17:15:46;14.90;45.10
39777;DHT22;25453;48.162;14.510;2023-03-18T17:18:14;14.80;45.30
39777;DHT22;25453;48.162;14.510;2023-03-18T17:20:43;14.80;45.50
39777;DHT22;25453;48.162;14.510;2023-03-18T17:23:14;14.80;45.60
39777;DHT22;25453;48.162;14.510;2023-03-18T17:25:42;14.70;45.70
39777;DHT22;25453;48.162;14.510;2023-03-18T17:28:10;14.70;45.90
39777;DHT22;25453;48.162;14.510;2023-03-18T17:30:41;14.60;45.90
39777;DHT22;25453;48.162;14.510;2023-03-18T17:33:17;14.60;46.10
39777;DHT22;25453;48.162;14.510;2023-03-18T17:35:45;14.50;46.20
39777;DHT22;25453;48.162;14.510;2023-03-18T17:38:12;14.50;46.30
39777;DHT22;25453;48.162;14.510;2023-03-18T17:40:41;14.40;46.40
39777;DHT22;25453;48.162;14.510;2023-03-18T17:43:20;14.40;46.50